createdAt,value
2016-05-07T00:00:25.359Z,12.49
2016-05-07T00:01:25.189Z,12.49
2016-05-07T00:02:25.348Z,12.39
2016-05-07T00:03:25.351Z,12.34
2016-05-07T00:04:25.337Z,12.34
2016-05-07T00:05:25.340Z,12.34
2016-05-07T00:06:25.187Z,12.29
2016-05-07T00:07:25.331Z,12.21
2016-05-07T00:08:25.333Z,12.27
2016-05-07T00:09:25.164Z,12.2
2016-05-07T00:10:25.322Z,12.16
2016-05-07T00:11:25.326Z,12.17
2016-05-07T00:12:25.875Z,12.12
2016-05-07T00:13:25.158Z,12.19
2016-05-07T00:14:25.162Z,12.04
2016-05-07T00:15:25.164Z,12.05
2016-05-07T00:16:25.463Z,12.04
2016-05-07T00:17:25.310Z,12.04
2016-05-07T00:18:25.594Z,11.94
2016-05-07T00:19:25.582Z,11.98
2016-05-07T00:20:25.350Z,11.95
2016-05-07T00:21:25.290Z,11.83
2016-05-07T00:22:25.293Z,11.83
2016-05-07T00:23:25.295Z,11.75
2016-05-07T00:24:40.063Z,11.83
2016-05-07T00:25:25.285Z,11.75
2016-05-07T00:26:25.538Z,11.75
2016-05-07T00:27:25.540Z,11.69
2016-05-07T00:28:25.527Z,11.76
2016-05-07T00:29:25.264Z,11.7
2016-05-07T00:30:25.112Z,11.64
2016-05-07T00:31:25.098Z,11.58
2016-05-07T00:32:25.257Z,11.55
2016-05-07T00:33:25.259Z,11.57
2016-05-07T00:34:25.247Z,11.55
2016-05-07T00:35:25.250Z,11.52
2016-05-07T00:36:25.252Z,11.52
2016-05-07T00:37:25.240Z,11.44
2016-05-07T00:38:25.242Z,11.46
2016-05-07T00:39:25.089Z,11.43
2016-05-07T00:40:25.231Z,11.33
2016-05-07T00:41:25.234Z,11.33
2016-05-07T00:42:25.658Z,11.27
2016-05-07T00:43:25.224Z,11.29
2016-05-07T00:44:25.227Z,11.21
2016-05-07T00:45:25.214Z,11.32
2016-05-07T00:46:25.216Z,11.35
2016-05-07T00:47:25.219Z,11.25
2016-05-07T00:48:25.050Z,11.17
2016-05-07T00:49:25.365Z,11.11
2016-05-07T00:50:25.196Z,11.03
2016-05-07T00:51:26.683Z,11.14
2016-05-07T00:52:25.201Z,11.06
2016-05-07T00:53:25.188Z,11.07
2016-05-07T00:54:25.988Z,11.03
2016-05-07T00:55:25.179Z,10.97
2016-05-07T00:56:25.182Z,11
2016-05-07T00:57:25.667Z,10.89
2016-05-07T00:58:25.187Z,10.88
2016-05-07T00:59:25.235Z,10.89
2016-05-07T01:00:25.270Z,10.78
2016-05-07T01:01:25.162Z,10.79
2016-05-07T01:02:26.322Z,10.71
2016-05-07T01:03:25.153Z,10.7
2016-05-07T01:04:25.156Z,10.7
2016-05-07T01:05:25.549Z,10.61
2016-05-07T01:06:25.145Z,10.7
2016-05-07T01:07:24.992Z,10.59
2016-05-07T01:08:24.978Z,10.61
2016-05-07T01:09:24.981Z,10.56
2016-05-07T01:10:25.125Z,10.55
2016-05-07T01:11:25.128Z,10.51
2016-05-07T01:12:25.130Z,10.52
2016-05-07T01:13:25.117Z,10.52
2016-05-07T01:14:25.120Z,10.47
2016-05-07T01:15:25.107Z,10.47
2016-05-07T01:16:24.953Z,10.51
2016-05-07T01:17:24.956Z,10.44
2016-05-07T01:18:25.099Z,10.51
2016-05-07T01:19:24.946Z,10.48
2016-05-07T01:20:25.088Z,10.38
2016-05-07T01:21:25.092Z,10.4
2016-05-07T01:22:25.079Z,10.44
2016-05-07T01:23:25.082Z,10.36
2016-05-07T01:24:25.068Z,10.36
2016-05-07T01:25:24.916Z,10.32
2016-05-07T01:26:25.073Z,10.32
2016-05-07T01:27:25.077Z,10.29
2016-05-07T01:28:24.908Z,10.4
2016-05-07T01:29:25.082Z,10.27
2016-05-07T01:30:25.053Z,10.29
2016-05-07T01:31:25.041Z,10.29
2016-05-07T01:32:25.043Z,10.25
2016-05-07T01:33:25.062Z,10.2
2016-05-07T01:34:25.034Z,10.18
2016-05-07T01:35:25.379Z,10.22
2016-05-07T01:36:24.976Z,10.23
2016-05-07T01:37:25.056Z,10.22
2016-05-07T01:38:25.169Z,10.18
2016-05-07T01:39:25.015Z,10.22
2016-05-07T01:40:25.018Z,10.18
2016-05-07T01:41:25.498Z,10.15
2016-05-07T01:42:25.864Z,10.17
2016-05-07T01:43:26.898Z,10.29
2016-05-07T01:44:39.179Z,10.2
2016-05-07T01:45:24.978Z,10.2
2016-05-07T01:46:25.137Z,10.2
2016-05-07T01:47:25.140Z,10.2
2016-05-07T01:48:24.970Z,10.07
2016-05-07T01:49:25.128Z,10.07
2016-05-07T01:50:24.804Z,10.09
2016-05-07T01:51:24.822Z,10.08
2016-05-07T01:52:24.964Z,10.09
2016-05-07T01:53:24.968Z,10.09
2016-05-07T01:54:24.955Z,10.09
2016-05-07T01:55:24.942Z,10.11
2016-05-07T01:56:24.945Z,10.05
2016-05-07T01:57:24.994Z,10.05
2016-05-07T01:58:24.950Z,10.04
2016-05-07T01:59:24.622Z,10.04
2016-05-07T02:00:24.922Z,9.96
2016-05-07T02:01:24.924Z,9.94
2016-05-07T02:02:24.911Z,9.99
2016-05-07T02:03:24.930Z,9.94
2016-05-07T02:04:24.916Z,9.97
2016-05-07T02:05:24.904Z,9.9
2016-05-07T02:06:24.735Z,9.89
2016-05-07T02:07:24.910Z,9.87
2016-05-07T02:08:24.912Z,9.83
2016-05-07T02:09:26.651Z,9.83
2016-05-07T02:10:24.885Z,9.81
2016-05-07T02:11:24.732Z,9.87
2016-05-07T02:12:25.094Z,9.93
2016-05-07T02:13:25.051Z,9.78
2016-05-07T02:14:25.224Z,9.76
2016-05-07T02:15:24.868Z,9.79
2016-05-07T02:16:24.714Z,9.66
2016-05-07T02:18:26.832Z,9.76
2016-05-07T02:19:26.240Z,9.68
2016-05-07T02:20:25.006Z,9.65
2016-05-07T02:21:25.527Z,9.69
2016-05-07T02:22:25.402Z,9.64
2016-05-07T02:23:25.249Z,9.65
2016-05-07T02:24:24.817Z,9.65
2016-05-07T02:25:24.820Z,9.6
2016-05-07T02:26:24.823Z,9.57
2016-05-07T02:27:24.825Z,9.61
2016-05-07T02:28:24.812Z,9.61
2016-05-07T02:29:24.659Z,9.58
2016-05-07T02:30:24.787Z,9.54
2016-05-07T02:31:24.789Z,9.57
2016-05-07T02:32:24.791Z,9.54
2016-05-07T02:33:24.622Z,9.54
2016-05-07T02:34:24.782Z,9.46
2016-05-07T02:35:24.612Z,9.53
2016-05-07T02:36:24.756Z,9.46
2016-05-07T02:37:24.758Z,9.47
2016-05-07T02:38:24.760Z,9.39
2016-05-07T02:39:24.748Z,9.46
2016-05-07T02:40:24.595Z,9.5
2016-05-07T02:41:24.738Z,9.48
2016-05-07T02:42:24.600Z,9.35
2016-05-07T02:43:24.727Z,9.36
2016-05-07T02:44:24.730Z,9.36
2016-05-07T02:45:24.718Z,9.35
2016-05-07T02:46:24.564Z,9.32
2016-05-07T02:47:24.707Z,9.29
2016-05-07T02:48:24.726Z,9.32
2016-05-07T02:49:24.556Z,9.32
2016-05-07T02:50:24.699Z,9.21
2016-05-07T02:51:24.546Z,9.33
2016-05-07T02:52:24.690Z,9.33
2016-05-07T02:53:24.676Z,9.24
2016-05-07T02:54:24.679Z,9.21
2016-05-07T02:55:39.356Z,9.31
2016-05-07T02:56:24.668Z,9.28
2016-05-07T02:57:26.471Z,9.26
2016-05-07T02:58:24.659Z,9.2
2016-05-07T02:59:24.676Z,9.18
2016-05-07T03:00:24.648Z,9.2
2016-05-07T03:01:24.651Z,9.21
2016-05-07T03:02:24.653Z,9.17
2016-05-07T03:03:25.734Z,9.21
2016-05-07T03:04:26.034Z,9.18
2016-05-07T03:05:25.787Z,9.21
2016-05-07T03:06:24.617Z,9.21
2016-05-07T03:07:24.620Z,9.17
2016-05-07T03:08:24.622Z,9.08
2016-05-07T03:09:24.610Z,9.18
2016-05-07T03:10:24.441Z,9.15
2016-05-07T03:11:24.600Z,9.15
2016-05-07T03:12:24.743Z,9.05
2016-05-07T03:13:24.589Z,9.11
2016-05-07T03:14:24.576Z,9.2
2016-05-07T03:15:24.580Z,9.2
2016-05-07T03:16:24.582Z,9.14
2016-05-07T03:17:24.272Z,9.11
2016-05-07T03:18:24.556Z,9.13
2016-05-07T03:19:24.246Z,9.13
2016-05-07T03:20:24.561Z,9.04
2016-05-07T03:21:24.549Z,9.01
2016-05-07T03:22:24.535Z,9.05
2016-05-07T03:23:24.554Z,9.1
2016-05-07T03:24:24.540Z,9.04
2016-05-07T03:25:24.529Z,8.99
2016-05-07T03:26:24.515Z,9.1
2016-05-07T03:27:24.721Z,9.13
2016-05-07T03:28:25.114Z,9.21
2016-05-07T03:29:25.242Z,9.11
2016-05-07T03:30:24.697Z,9.17
2016-05-07T03:31:25.107Z,9.15
2016-05-07T03:32:24.344Z,9.18
2016-05-07T03:33:24.487Z,9.26
2016-05-07T03:34:24.489Z,9.18
2016-05-07T03:35:24.478Z,9.2
2016-05-07T03:36:26.620Z,9.11
2016-05-07T03:37:25.498Z,9.17
2016-05-07T03:38:24.313Z,9.2
2016-05-07T03:39:24.753Z,9.15
2016-05-07T03:40:24.974Z,9.28
2016-05-07T03:41:24.447Z,9.21
2016-05-07T03:42:24.339Z,9.33
2016-05-07T03:43:24.435Z,9.35
2016-05-07T03:44:24.282Z,9.33
2016-05-07T03:45:24.425Z,9.32
2016-05-07T03:46:24.428Z,9.32
2016-05-07T03:47:24.260Z,9.32
2016-05-07T03:48:24.262Z,9.33
2016-05-07T03:49:24.405Z,9.39
2016-05-07T03:50:24.252Z,9.35
2016-05-07T03:51:24.395Z,9.33
2016-05-07T03:52:24.398Z,9.38
2016-05-07T03:53:24.243Z,9.39
2016-05-07T03:54:24.387Z,9.36
2016-05-07T03:55:24.374Z,9.5
2016-05-07T03:56:24.376Z,9.42
2016-05-07T03:57:24.240Z,9.46
2016-05-07T03:58:24.367Z,9.4
2016-05-07T03:59:24.213Z,9.51
2016-05-07T04:00:24.356Z,9.53
2016-05-07T04:01:24.187Z,9.56
2016-05-07T04:02:24.346Z,9.64
2016-05-07T04:03:24.348Z,9.71
2016-05-07T04:04:24.351Z,9.89
2016-05-07T04:05:24.354Z,10.14
2016-05-07T04:06:24.342Z,10.32
2016-05-07T04:07:24.328Z,10.44
2016-05-07T04:08:24.316Z,10.68
2016-05-07T04:09:24.319Z,11.14
2016-05-07T04:10:24.321Z,11.33
2016-05-07T04:11:25.370Z,11.55
2016-05-07T04:12:38.516Z,11.94
2016-05-07T04:13:24.922Z,12.07
2016-05-07T04:15:24.288Z,12.67
2016-05-07T04:16:38.480Z,13.03
2016-05-07T04:17:24.496Z,13.25
2016-05-07T04:18:24.436Z,13.57
2016-05-07T04:19:24.127Z,13.77
2016-05-07T04:20:24.301Z,14.09
2016-05-07T04:21:38.821Z,14.43
2016-05-07T04:22:24.290Z,14.57
2016-05-07T04:23:24.277Z,14.99
2016-05-07T04:24:24.734Z,15.2
2016-05-07T04:25:24.283Z,15.47
2016-05-07T04:26:24.832Z,15.78
2016-05-07T04:27:24.148Z,16.02
2016-05-07T04:28:24.135Z,16.28
2016-05-07T04:29:24.293Z,16.49
2016-05-07T04:30:24.281Z,16.78
2016-05-07T04:31:24.128Z,16.91
2016-05-07T04:32:24.301Z,17.14
2016-05-07T04:33:24.133Z,17.33
2016-05-07T04:34:24.276Z,17.52
2016-05-07T04:35:24.138Z,17.7
2016-05-07T04:36:24.126Z,17.89
2016-05-07T04:37:24.284Z,18.17
2016-05-07T04:38:24.302Z,18.5
2016-05-07T04:39:24.306Z,18.75
2016-05-07T04:40:24.136Z,18.94
2016-05-07T04:41:24.294Z,19.26
2016-05-07T04:42:24.375Z,19.56
2016-05-07T04:43:24.161Z,19.83
2016-05-07T04:44:24.319Z,20.08
2016-05-07T04:45:24.336Z,20.26
2016-05-07T04:46:26.402Z,20.51
2016-05-07T04:47:26.155Z,20.66
2016-05-07T04:48:25.267Z,20.88
2016-05-07T04:49:24.332Z,21.04
2016-05-07T04:50:24.335Z,21.16
2016-05-07T04:51:24.353Z,21.4
2016-05-07T04:52:24.355Z,21.58
2016-05-07T04:53:24.421Z,21.83
2016-05-07T04:54:24.360Z,22
2016-05-07T04:55:25.660Z,22.24
2016-05-07T04:56:24.226Z,22.39
2016-05-07T04:57:25.057Z,22.55
2016-05-07T04:58:24.575Z,22.75
2016-05-07T04:59:24.406Z,22.88
2016-05-07T05:00:24.909Z,22.92
2016-05-07T05:01:24.412Z,22.92
2016-05-07T05:02:24.414Z,22.98
2016-05-07T05:03:24.432Z,23.19
2016-05-07T05:04:24.434Z,23.46
2016-05-07T05:05:24.298Z,23.48
2016-05-07T05:06:24.456Z,23.78
2016-05-07T05:07:24.458Z,23.95
2016-05-07T05:08:24.320Z,24.18
2016-05-07T05:09:24.480Z,24.31
2016-05-07T05:10:24.498Z,24.3
2016-05-07T05:11:24.501Z,24.39
2016-05-07T05:12:24.769Z,24.31
2016-05-07T05:13:24.522Z,24.24
2016-05-07T05:14:24.524Z,24.32
2016-05-07T05:15:24.402Z,24.55
2016-05-07T05:16:24.389Z,24.85
2016-05-07T05:17:24.564Z,24.93
2016-05-07T05:18:24.566Z,25.06
2016-05-07T05:19:24.585Z,25.17
2016-05-07T05:20:24.588Z,25.25
2016-05-07T05:21:24.590Z,25.15
2016-05-07T05:22:24.609Z,25.17
2016-05-07T05:23:24.627Z,25.18
2016-05-07T05:24:24.488Z,25.32
2016-05-07T05:25:24.648Z,25.6
2016-05-07T05:26:24.651Z,25.7
2016-05-07T05:27:25.278Z,25.99
2016-05-07T05:28:24.671Z,26.01
2016-05-07T05:29:24.690Z,26.15
2016-05-07T05:30:38.882Z,26.39
2016-05-07T05:31:24.710Z,26.3
2016-05-07T05:32:25.432Z,26.28
2016-05-07T05:33:25.435Z,26.26
2016-05-07T05:34:25.140Z,26.44
2016-05-07T05:35:24.768Z,26.6
2016-05-07T05:36:24.771Z,26.82
2016-05-07T05:37:24.789Z,27
2016-05-07T05:38:24.636Z,27.1
2016-05-07T05:39:24.811Z,27.29
2016-05-07T05:40:25.375Z,27.46
2016-05-07T05:41:24.832Z,27.6
2016-05-07T05:43:24.867Z,27.79
2016-05-07T05:44:24.871Z,27.69
2016-05-07T05:45:25.389Z,27.66
2016-05-07T05:46:24.908Z,27.65
2016-05-07T05:47:24.910Z,27.39
2016-05-07T05:48:24.928Z,27.31
2016-05-07T05:49:24.931Z,27.36
2016-05-07T05:50:24.949Z,27.55
2016-05-07T05:51:24.968Z,27.69
2016-05-07T05:52:24.971Z,27.78
2016-05-07T05:53:24.864Z,27.79
2016-05-07T05:54:25.007Z,27.93
2016-05-07T05:55:25.010Z,28.18
2016-05-07T05:56:25.028Z,28.25
2016-05-07T05:57:25.312Z,28.44
2016-05-07T05:58:25.049Z,28.68
2016-05-07T05:59:25.068Z,28.86
2016-05-07T06:00:25.086Z,28.85
2016-05-07T06:01:25.088Z,29.15
2016-05-07T06:02:25.107Z,29.11
2016-05-07T06:03:25.125Z,29.08
2016-05-07T06:05:25.146Z,28.68
2016-05-07T06:06:25.946Z,28.58
2016-05-07T06:07:25.432Z,28.46
2016-05-07T06:08:25.685Z,28.55
2016-05-07T06:09:25.267Z,28.66
2016-05-07T06:10:25.066Z,28.39
2016-05-07T06:11:25.240Z,28.18
2016-05-07T06:12:25.133Z,28.15
2016-05-07T06:13:25.277Z,28.24
2016-05-07T06:14:25.295Z,28.39
2016-05-07T06:15:25.470Z,28.34
2016-05-07T06:16:25.332Z,28.51
2016-05-07T06:17:25.334Z,28.64
2016-05-07T06:18:25.353Z,28.68
2016-05-07T06:19:26.028Z,28.85
2016-05-07T06:20:25.656Z,28.86
2016-05-07T06:21:25.470Z,28.95
2016-05-07T06:22:25.177Z,28.86
2016-05-07T06:23:25.616Z,28.71
2016-05-07T06:24:25.963Z,28.61
2016-05-07T06:25:25.466Z,28.64
2016-05-07T06:26:25.312Z,28.44
2016-05-07T06:27:25.346Z,28.36
2016-05-07T06:28:25.489Z,28.37
2016-05-07T06:29:25.366Z,28.25
2016-05-07T06:30:25.369Z,28.27
2016-05-07T06:31:25.387Z,28.09
2016-05-07T06:32:25.406Z,28.24
2016-05-07T06:33:25.582Z,28.22
2016-05-07T06:34:25.427Z,28.07
2016-05-07T06:35:25.617Z,27.97
2016-05-07T06:36:25.636Z,28.03
2016-05-07T06:37:25.498Z,28.07
2016-05-07T06:38:25.657Z,28.31
2016-05-07T06:39:25.675Z,28.44
2016-05-07T06:40:25.678Z,28.62
2016-05-07T06:41:25.712Z,28.77
2016-05-07T06:42:25.730Z,28.92
2016-05-07T06:43:25.748Z,29.08
2016-05-07T06:44:25.750Z,29.06
2016-05-07T06:45:25.769Z,29.05
2016-05-07T06:46:25.803Z,29.11
2016-05-07T06:47:25.806Z,29.11
2016-05-07T06:48:25.809Z,28.95
2016-05-07T06:50:26.048Z,28.89
2016-05-07T06:51:26.020Z,28.81
2016-05-07T06:52:25.741Z,28.74
2016-05-07T06:53:26.213Z,28.7
2016-05-07T06:54:25.919Z,28.89
2016-05-07T06:55:25.952Z,28.92
2016-05-07T06:56:25.955Z,28.86
2016-05-07T06:57:27.082Z,29.05
2016-05-07T06:58:28.102Z,29.11
2016-05-07T06:59:27.010Z,29.09
2016-05-07T07:00:26.028Z,29.24
2016-05-07T07:01:26.249Z,29.31
2016-05-07T07:02:26.580Z,29.46
2016-05-07T07:03:26.083Z,29.46
2016-05-07T07:04:26.102Z,29.39
2016-05-07T07:05:26.104Z,29.26
2016-05-07T07:06:26.138Z,29.08
2016-05-07T07:07:26.140Z,29.06
2016-05-07T07:08:26.191Z,29.18
2016-05-07T07:09:26.193Z,29.33
2016-05-07T07:10:26.211Z,29.6
2016-05-07T07:11:26.230Z,29.8
2016-05-07T07:12:26.279Z,29.92
2016-05-07T07:13:26.251Z,30.1
2016-05-07T07:14:26.284Z,30.45
2016-05-07T07:15:26.303Z,30.72
2016-05-07T07:16:26.149Z,30.82
2016-05-07T07:17:26.325Z,30.86
2016-05-07T07:18:26.187Z,30.84
2016-05-07T07:19:26.361Z,30.84
2016-05-07T07:20:26.378Z,30.95
2016-05-07T07:21:26.413Z,31.06
2016-05-07T07:22:26.275Z,31.17
2016-05-07T07:23:28.169Z,31.2
2016-05-07T07:24:26.640Z,31.17
2016-05-07T07:25:27.861Z,31.19
2016-05-07T07:26:26.349Z,31.32
2016-05-07T07:27:26.538Z,31.43
2016-05-07T07:28:26.385Z,31.5
2016-05-07T07:29:27.059Z,31.7
2016-05-07T07:30:26.594Z,31.95
2016-05-07T07:31:26.613Z,32.19
2016-05-07T07:32:26.661Z,32.25
2016-05-07T07:33:26.992Z,32.38
2016-05-07T07:34:26.823Z,32.55
2016-05-07T07:35:26.685Z,32.67
2016-05-07T07:36:26.782Z,32.87
2016-05-07T07:37:26.910Z,32.92
2016-05-07T07:38:26.943Z,33.03
2016-05-07T07:39:26.602Z,33.07
2016-05-07T07:40:26.776Z,33.04
2016-05-07T07:41:26.795Z,33.03
2016-05-07T07:42:26.892Z,32.99
2016-05-07T07:43:26.832Z,33.03
2016-05-07T07:44:26.850Z,33.12
2016-05-07T07:45:26.728Z,33.03
2016-05-07T07:46:26.902Z,33
2016-05-07T07:47:26.920Z,32.89
2016-05-07T07:48:26.954Z,32.77
2016-05-07T07:49:26.973Z,32.67
2016-05-07T07:50:26.975Z,32.82
2016-05-07T07:51:27.009Z,32.99
2016-05-07T07:52:27.027Z,32.81
2016-05-07T07:53:26.890Z,32.75
2016-05-07T07:54:27.064Z,32.7
2016-05-07T07:55:27.083Z,32.62
2016-05-07T07:56:27.117Z,32.48
2016-05-07T07:57:27.135Z,32.23
2016-05-07T07:58:27.153Z,32.26
2016-05-07T07:59:27.171Z,32.18
2016-05-07T08:00:27.033Z,32.04
2016-05-07T08:01:27.208Z,32.01
2016-05-07T08:02:27.242Z,32.04
2016-05-07T08:03:27.260Z,32.03
2016-05-07T08:04:27.279Z,32.01
2016-05-07T08:05:27.312Z,32.15
2016-05-07T08:06:27.316Z,32.38
2016-05-07T08:07:27.334Z,32.48
2016-05-07T08:08:27.712Z,32.55
2016-05-07T08:09:27.495Z,32.44
2016-05-07T08:10:27.248Z,32.38
2016-05-07T08:11:28.079Z,32.38
2016-05-07T08:12:27.800Z,32.51
2016-05-07T08:13:27.771Z,32.5
2016-05-07T08:14:27.353Z,32.26
2016-05-07T08:15:27.558Z,32.03
2016-05-07T08:16:27.546Z,32.01
2016-05-07T08:17:27.657Z,32.06
2016-05-07T08:18:28.972Z,32.07
2016-05-07T08:19:27.600Z,32.04
2016-05-07T08:20:27.634Z,32.01
2016-05-07T08:21:27.887Z,31.84
2016-05-07T08:22:27.515Z,31.69
2016-05-07T08:23:27.658Z,31.44
2016-05-07T08:24:27.550Z,31.43
2016-05-07T08:25:27.725Z,31.2
2016-05-07T08:26:27.745Z,31.1
2016-05-07T08:27:27.638Z,30.86
2016-05-07T08:28:27.811Z,30.58
2016-05-07T08:29:27.819Z,30.35
2016-05-07T08:30:27.864Z,30.16
2016-05-07T08:31:27.943Z,30
2016-05-07T08:32:27.894Z,29.86
2016-05-07T08:33:27.893Z,29.8
2016-05-07T08:34:27.966Z,29.52
2016-05-07T08:35:28.141Z,29.23
2016-05-07T08:36:28.175Z,28.86
2016-05-07T08:37:28.209Z,28.8
2016-05-07T08:38:28.101Z,28.61
2016-05-07T08:39:28.290Z,28.27
2016-05-07T08:40:28.314Z,27.92
2016-05-07T08:41:28.166Z,27.57
2016-05-07T08:42:28.363Z,27.24
2016-05-07T08:43:29.042Z,26.82
2016-05-07T08:44:29.082Z,26.51
2016-05-07T08:45:28.524Z,25.99
2016-05-07T08:46:28.435Z,25.88
2016-05-07T08:47:28.455Z,25.51
2016-05-07T08:48:28.475Z,25.27
2016-05-07T08:49:28.465Z,25.17
2016-05-07T08:50:28.499Z,24.95
2016-05-07T08:51:29.971Z,24.78
2016-05-07T08:52:29.725Z,24.65
2016-05-07T08:53:28.525Z,24.52
2016-05-07T08:54:29.309Z,24.37
2016-05-07T08:55:29.359Z,24.28
2016-05-07T08:56:28.707Z,24.1
2016-05-07T08:57:28.694Z,24.09
2016-05-07T08:58:28.588Z,23.97
2016-05-07T08:59:28.435Z,23.85
2016-05-07T09:00:28.593Z,23.69
2016-05-07T09:01:28.611Z,23.65
2016-05-07T09:02:28.458Z,23.6
2016-05-07T09:03:28.616Z,23.58
2016-05-07T09:04:28.636Z,23.46
2016-05-07T09:05:28.482Z,23.39
2016-05-07T09:06:28.657Z,23.25
2016-05-07T09:07:28.659Z,23.22
2016-05-07T09:08:28.677Z,23.12
2016-05-07T09:09:28.665Z,23.05
2016-05-07T09:10:28.527Z,23.02
2016-05-07T09:11:28.685Z,22.95
2016-05-07T09:12:28.798Z,23.02
2016-05-07T09:13:28.706Z,22.95
2016-05-07T09:14:28.554Z,22.92
2016-05-07T09:15:28.556Z,22.97
2016-05-07T09:16:28.574Z,22.85
2016-05-07T09:17:28.764Z,22.82
2016-05-07T09:18:28.736Z,22.8
2016-05-07T09:19:28.739Z,22.68
2016-05-07T09:20:28.601Z,22.73
2016-05-07T09:21:28.759Z,22.7
2016-05-07T09:22:28.761Z,22.75
2016-05-07T09:23:28.781Z,22.62
2016-05-07T09:24:28.627Z,22.65
2016-05-07T09:25:28.786Z,22.64
2016-05-07T09:26:30.726Z,22.62
2016-05-07T09:27:28.853Z,22.61
2016-05-07T09:28:29.356Z,22.6
2016-05-07T09:29:28.797Z,22.57
2016-05-07T09:30:28.814Z,22.55
2016-05-07T09:31:28.677Z,22.55
2016-05-07T09:32:29.116Z,22.61
2016-05-07T09:33:29.072Z,22.6
2016-05-07T09:34:28.982Z,22.65
2016-05-07T09:35:28.828Z,22.6
2016-05-07T09:36:43.019Z,22.6
2016-05-07T09:37:28.865Z,22.65
2016-05-07T09:38:28.852Z,22.67
2016-05-07T09:39:29.557Z,22.7
2016-05-07T09:40:28.545Z,22.79
2016-05-07T09:41:29.141Z,22.76
2016-05-07T09:42:29.910Z,22.72
2016-05-07T09:43:28.881Z,22.7
2016-05-07T09:44:28.727Z,22.73
2016-05-07T09:45:28.730Z,22.68
2016-05-07T09:46:28.890Z,22.64
2016-05-07T09:47:28.751Z,22.7
2016-05-07T09:48:28.910Z,22.65
2016-05-07T09:49:28.912Z,22.67
2016-05-07T09:50:28.915Z,22.68
2016-05-07T09:51:28.918Z,22.73
2016-05-07T09:52:28.921Z,22.72
2016-05-07T09:53:28.767Z,22.68
2016-05-07T09:54:28.942Z,22.77
2016-05-07T09:55:28.944Z,22.73
2016-05-07T09:56:28.948Z,22.7
2016-05-07T09:57:29.403Z,22.75
2016-05-07T09:58:28.953Z,22.79
2016-05-07T09:59:28.971Z,22.73
2016-05-07T10:00:28.817Z,22.83
2016-05-07T10:01:30.242Z,22.82
2016-05-07T10:02:30.448Z,22.85
2016-05-07T10:03:29.966Z,22.9
2016-05-07T10:04:28.985Z,22.83
2016-05-07T10:05:29.472Z,22.9
2016-05-07T10:06:29.083Z,22.88
2016-05-07T10:07:28.836Z,22.88
2016-05-07T10:08:29.230Z,22.91
2016-05-07T10:09:29.013Z,22.83
2016-05-07T10:10:29.985Z,22.9
2016-05-07T10:11:29.019Z,22.95
2016-05-07T10:12:29.756Z,22.9
2016-05-07T10:13:29.774Z,22.98
2016-05-07T10:14:29.496Z,22.97
2016-05-07T10:15:29.045Z,22.95
2016-05-07T10:16:29.048Z,23.07
2016-05-07T10:17:28.895Z,23.02
2016-05-07T10:18:29.069Z,23.05
2016-05-07T10:19:29.071Z,23.09
2016-05-07T10:20:29.074Z,23.05
2016-05-07T10:21:29.077Z,23.1
2016-05-07T10:22:29.079Z,23.17
2016-05-07T10:23:28.925Z,23.15
2016-05-07T10:24:29.084Z,23.23
2016-05-07T10:25:28.792Z,23.05
2016-05-07T10:26:29.106Z,23.05
2016-05-07T10:27:29.202Z,23.07
2016-05-07T10:28:29.107Z,23.05
2016-05-07T10:29:29.109Z,23.05
2016-05-07T10:30:29.111Z,23.12
2016-05-07T10:31:29.131Z,23.04
2016-05-07T10:32:29.133Z,23.04
2016-05-07T10:33:28.980Z,23.16
2016-05-07T10:34:29.138Z,23.12
2016-05-07T10:35:29.142Z,23.09
2016-05-07T10:36:29.159Z,23.13
2016-05-07T10:37:29.005Z,23.15
2016-05-07T10:38:29.165Z,23.16
2016-05-07T10:39:29.183Z,23.2
2016-05-07T10:40:29.169Z,23.19
2016-05-07T10:41:29.172Z,23.13
2016-05-07T10:42:29.597Z,23.23
2016-05-07T10:43:29.194Z,23.23
2016-05-07T10:44:29.055Z,23.25
2016-05-07T10:45:30.668Z,23.27
2016-05-07T10:46:29.499Z,23.31
2016-05-07T10:48:29.223Z,23.46
2016-05-07T10:49:29.366Z,23.35
2016-05-07T10:50:29.526Z,23.38
2016-05-07T10:51:29.074Z,23.43
2016-05-07T10:52:29.531Z,23.48
2016-05-07T10:53:29.252Z,23.47
2016-05-07T10:54:29.239Z,23.5
2016-05-07T10:55:43.445Z,23.57
2016-05-07T10:56:29.306Z,23.65
2016-05-07T10:57:29.654Z,23.7
2016-05-07T10:58:29.265Z,23.66
2016-05-07T10:59:29.283Z,23.68
2016-05-07T11:00:29.724Z,23.69
2016-05-07T11:01:29.133Z,23.6
2016-05-07T11:02:29.291Z,23.57
2016-05-07T11:03:29.294Z,23.66
2016-05-07T11:04:29.314Z,23.55
2016-05-07T11:05:29.144Z,23.58
2016-05-07T11:06:29.161Z,23.6
2016-05-07T11:07:29.165Z,23.55
2016-05-07T11:08:29.324Z,23.66
2016-05-07T11:09:29.326Z,23.63
2016-05-07T11:10:29.329Z,23.69
2016-05-07T11:11:29.191Z,23.72
2016-05-07T11:12:29.475Z,23.83
2016-05-07T11:13:29.352Z,23.83
2016-05-07T11:14:29.355Z,23.7
2016-05-07T11:15:29.358Z,23.7
2016-05-07T11:16:29.063Z,23.8
2016-05-07T11:17:29.379Z,23.83
2016-05-07T11:18:29.382Z,23.78
2016-05-07T11:19:29.947Z,23.93
2016-05-07T11:20:29.762Z,23.8
2016-05-07T11:21:29.234Z,23.8
2016-05-07T11:22:30.673Z,23.83
2016-05-07T11:23:29.426Z,23.84
2016-05-07T11:24:29.257Z,23.84
2016-05-07T11:25:29.260Z,23.79
2016-05-07T11:26:29.418Z,23.84
2016-05-07T11:27:29.281Z,23.76
2016-05-07T11:28:29.440Z,23.8
2016-05-07T11:29:29.989Z,23.79
2016-05-07T11:30:31.054Z,23.76
2016-05-07T11:31:29.464Z,23.79
2016-05-07T11:32:30.450Z,23.79
2016-05-07T11:33:29.313Z,23.78
2016-05-07T11:34:29.472Z,23.79
2016-05-07T11:35:29.475Z,23.85
2016-05-07T11:36:29.492Z,23.87
2016-05-07T11:37:29.479Z,23.83
2016-05-07T11:38:29.498Z,23.79
2016-05-07T11:39:29.500Z,23.79
2016-05-07T11:40:29.503Z,23.9
2016-05-07T11:41:29.505Z,23.83
2016-05-07T11:42:29.369Z,23.91
2016-05-07T11:43:29.371Z,23.98
2016-05-07T11:44:29.545Z,24.09
2016-05-07T11:45:29.533Z,24.13
2016-05-07T11:46:29.551Z,24.08
2016-05-07T11:47:29.538Z,24.13
2016-05-07T11:48:29.399Z,24.03
2016-05-07T11:49:29.402Z,24.13
2016-05-07T11:50:29.577Z,24.06
2016-05-07T11:51:29.565Z,23.95
2016-05-07T11:52:29.567Z,24.03
2016-05-07T11:53:29.570Z,23.98
2016-05-07T11:54:29.588Z,24.03
2016-05-07T11:55:29.434Z,24.18
2016-05-07T11:56:29.593Z,24.16
2016-05-07T11:57:29.455Z,24.2
2016-05-07T11:58:29.599Z,24.3
2016-05-07T11:59:29.601Z,24.43
2016-05-07T12:00:29.464Z,24.47
2016-05-07T12:01:29.622Z,24.62
2016-05-07T12:02:29.484Z,24.68
2016-05-07T12:03:29.643Z,24.64
2016-05-07T12:04:31.036Z,24.71
2016-05-07T12:05:29.648Z,24.58
2016-05-07T12:06:29.698Z,24.52
2016-05-07T12:07:29.654Z,24.45
2016-05-07T12:08:30.516Z,24.47
2016-05-07T12:09:29.675Z,24.35
2016-05-07T12:10:29.725Z,24.4
2016-05-07T12:11:29.539Z,24.39
2016-05-07T12:12:29.933Z,24.35
2016-05-07T12:13:30.999Z,24.25
2016-05-07T12:14:30.407Z,24.27
2016-05-07T12:15:29.707Z,24.27
2016-05-07T12:16:43.897Z,24.25
2016-05-07T12:17:30.118Z,24.3
2016-05-07T12:18:29.980Z,24.32
2016-05-07T12:19:29.749Z,24.34
2016-05-07T12:20:29.736Z,24.32
2016-05-07T12:21:29.738Z,24.35
2016-05-07T12:22:29.601Z,24.39
2016-05-07T12:23:29.760Z,24.46
2016-05-07T12:24:29.621Z,24.52
2016-05-07T12:25:29.765Z,24.5
2016-05-07T12:26:29.626Z,24.62
2016-05-07T12:27:29.849Z,24.65
2016-05-07T12:28:29.789Z,24.78
2016-05-07T12:29:29.807Z,24.76
2016-05-07T12:30:29.809Z,24.83
2016-05-07T12:31:29.656Z,24.71
2016-05-07T12:32:29.659Z,24.8
2016-05-07T12:33:29.817Z,24.76
2016-05-07T12:34:29.821Z,24.69
2016-05-07T12:35:29.822Z,24.62
2016-05-07T12:36:29.686Z,24.61
2016-05-07T12:37:29.688Z,24.5
2016-05-07T12:38:30.691Z,24.5
2016-05-07T12:39:29.708Z,24.5
2016-05-07T12:40:31.400Z,24.34
2016-05-07T12:41:29.855Z,24.39
2016-05-07T12:42:30.202Z,24.37
2016-05-07T12:43:29.875Z,24.32
2016-05-07T12:44:30.269Z,24.46
2016-05-07T12:45:29.975Z,24.43
2016-05-07T12:46:29.900Z,24.5
2016-05-07T12:47:29.902Z,24.52
2016-05-07T12:48:30.280Z,24.58
2016-05-07T12:49:30.549Z,24.65
2016-05-07T12:50:30.066Z,24.73
2016-05-07T12:51:29.913Z,24.78
2016-05-07T12:52:29.931Z,24.9
2016-05-07T12:53:29.934Z,24.9
2016-05-07T12:54:29.951Z,24.93
2016-05-07T12:55:29.955Z,24.87
2016-05-07T12:56:29.801Z,24.95
2016-05-07T12:57:29.820Z,24.93
2016-05-07T12:58:29.979Z,24.93
2016-05-07T12:59:29.982Z,24.85
2016-05-07T13:00:29.984Z,24.83
2016-05-07T13:01:29.987Z,24.81
2016-05-07T13:02:29.990Z,24.76
2016-05-07T13:03:29.992Z,24.73
2016-05-07T13:04:29.854Z,24.73
2016-05-07T13:05:30.013Z,24.64
2016-05-07T13:06:30.016Z,24.57